sensor_id;sensor_type;location;lat;lon;timestamp;P1;durP1;ratioP1;P2;durP2;ratioP2
45059;SDS011;30799;49.060;9.312;2022-07-01T00:01:40;1.40;;;1.30;;
45059;SDS011;30799;49.060;9.312;2022-07-01T00:04:07;1.52;;;1.13;;
45059;SDS011;30799;49.060;9.312;2022-07-01T00:06:34;1.20;;;1.10;;
45059;SDS011;30799;49.060;9.312;2022-07-01T00:09:02;1.40;;;1.15;;
45059;SDS011;30799;49.060;9.312;2022-07-01T00:11:31;1.10;;;1.00;;
45059;SDS011;30799;49.060;9.312;2022-07-01T00:13:58;1.40;;;1.20;;
45059;SDS011;30799;49.060;9.312;2022-07-01T00:16:25;1.25;;;1.15;;
45059;SDS011;30799;49.060;9.312;2022-07-01T00:18:51;0.95;;;0.95;;
45059;SDS011;30799;49.060;9.312;2022-07-01T00:21:18;0.95;;;0.90;;
45059;SDS011;30799;49.060;9.312;2022-07-01T00:23:45;1.63;;;1.08;;
45059;SDS011;30799;49.060;9.312;2022-07-01T00:26:12;3.00;;;1.17;;
45059;SDS011;30799;49.060;9.312;2022-07-01T00:28:39;1.55;;;1.30;;
45059;SDS011;30799;49.060;9.312;2022-07-01T00:31:05;1.30;;;1.10;;
45059;SDS011;30799;49.060;9.312;2022-07-01T00:33:32;1.27;;;1.17;;
45059;SDS011;30799;49.060;9.312;2022-07-01T00:35:59;1.58;;;1.10;;
45059;SDS011;30799;49.060;9.312;2022-07-01T00:38:26;1.48;;;1.30;;
45059;SDS011;30799;49.060;9.312;2022-07-01T00:40:53;1.38;;;1.27;;
45059;SDS011;30799;49.060;9.312;2022-07-01T00:43:21;1.38;;;1.08;;
45059;SDS011;30799;49.060;9.312;2022-07-01T00:46:10;1.30;;;1.17;;
45059;SDS011;30799;49.060;9.312;2022-07-01T00:48:38;1.63;;;1.10;;
45059;SDS011;30799;49.060;9.312;2022-07-01T00:51:05;1.63;;;1.15;;
45059;SDS011;30799;49.060;9.312;2022-07-01T00:53:33;1.42;;;1.05;;
45059;SDS011;30799;49.060;9.312;2022-07-01T00:56:00;2.47;;;1.42;;
45059;SDS011;30799;49.060;9.312;2022-07-01T00:58:27;1.00;;;0.98;;
45059;SDS011;30799;49.060;9.312;2022-07-01T01:00:55;0.95;;;0.85;;
45059;SDS011;30799;49.060;9.312;2022-07-01T01:03:23;1.27;;;1.02;;
45059;SDS011;30799;49.060;9.312;2022-07-01T01:05:50;1.20;;;1.10;;
45059;SDS011;30799;49.060;9.312;2022-07-01T01:08:18;1.20;;;1.10;;
45059;SDS011;30799;49.060;9.312;2022-07-01T01:10:44;0.98;;;0.93;;
45059;SDS011;30799;49.060;9.312;2022-07-01T01:13:11;1.60;;;1.17;;
45059;SDS011;30799;49.060;9.312;2022-07-01T01:15:38;1.00;;;0.90;;
45059;SDS011;30799;49.060;9.312;2022-07-01T01:18:05;1.25;;;1.05;;
45059;SDS011;30799;49.060;9.312;2022-07-01T01:20:36;2.55;;;1.17;;
45059;SDS011;30799;49.060;9.312;2022-07-01T01:23:03;1.63;;;1.10;;
45059;SDS011;30799;49.060;9.312;2022-07-01T01:25:31;0.98;;;0.93;;
45059;SDS011;30799;49.060;9.312;2022-07-01T01:27:58;0.90;;;0.90;;
45059;SDS011;30799;49.060;9.312;2022-07-01T01:30:26;1.23;;;0.90;;
45059;SDS011;30799;49.060;9.312;2022-07-01T01:32:53;1.52;;;1.10;;
45059;SDS011;30799;49.060;9.312;2022-07-01T01:35:21;1.88;;;1.10;;
45059;SDS011;30799;49.060;9.312;2022-07-01T01:37:48;1.20;;;1.00;;
45059;SDS011;30799;49.060;9.312;2022-07-01T01:40:15;1.63;;;1.00;;
45059;SDS011;30799;49.060;9.312;2022-07-01T01:42:42;0.80;;;0.80;;
45059;SDS011;30799;49.060;9.312;2022-07-01T01:45:09;1.25;;;0.93;;
45059;SDS011;30799;49.060;9.312;2022-07-01T01:47:37;0.70;;;0.70;;
45059;SDS011;30799;49.060;9.312;2022-07-01T01:50:05;1.20;;;0.80;;
45059;SDS011;30799;49.060;9.312;2022-07-01T01:52:32;1.00;;;0.88;;
45059;SDS011;30799;49.060;9.312;2022-07-01T01:55:00;1.00;;;0.95;;
45059;SDS011;30799;49.060;9.312;2022-07-01T01:57:27;1.25;;;1.00;;
45059;SDS011;30799;49.060;9.312;2022-07-01T01:59:54;1.58;;;1.08;;
45059;SDS011;30799;49.060;9.312;2022-07-01T02:02:20;2.05;;;0.70;;
45059;SDS011;30799;49.060;9.312;2022-07-01T02:04:48;1.30;;;0.57;;
45059;SDS011;30799;49.060;9.312;2022-07-01T02:07:15;0.90;;;0.50;;
45059;SDS011;30799;49.060;9.312;2022-07-01T02:09:42;0.88;;;0.68;;
45059;SDS011;30799;49.060;9.312;2022-07-01T02:12:08;1.00;;;0.50;;
45059;SDS011;30799;49.060;9.312;2022-07-01T02:14:35;2.45;;;0.60;;
45059;SDS011;30799;49.060;9.312;2022-07-01T02:17:03;2.67;;;0.60;;
45059;SDS011;30799;49.060;9.312;2022-07-01T02:19:29;0.98;;;0.60;;
45059;SDS011;30799;49.060;9.312;2022-07-01T02:21:56;2.70;;;0.50;;
45059;SDS011;30799;49.060;9.312;2022-07-01T02:24:23;0.50;;;0.40;;
45059;SDS011;30799;49.060;9.312;2022-07-01T02:26:49;0.73;;;0.50;;
45059;SDS011;30799;49.060;9.312;2022-07-01T02:29:16;2.20;;;0.60;;
45059;SDS011;30799;49.060;9.312;2022-07-01T02:31:43;3.45;;;0.50;;
45059;SDS011;30799;49.060;9.312;2022-07-01T02:34:10;1.52;;;0.60;;
45059;SDS011;30799;49.060;9.312;2022-07-01T02:36:36;0.50;;;0.50;;
45059;SDS011;30799;49.060;9.312;2022-07-01T02:39:03;1.05;;;0.50;;
45059;SDS011;30799;49.060;9.312;2022-07-01T02:41:30;0.65;;;0.50;;
45059;SDS011;30799;49.060;9.312;2022-07-01T02:43:56;1.77;;;0.80;;
45059;SDS011;30799;49.060;9.312;2022-07-01T02:46:23;4.30;;;0.70;;
45059;SDS011;30799;49.060;9.312;2022-07-01T02:48:50;0.73;;;0.50;;
45059;SDS011;30799;49.060;9.312;2022-07-01T02:51:17;1.13;;;0.73;;
45059;SDS011;30799;49.060;9.312;2022-07-01T02:53:44;1.80;;;0.47;;
45059;SDS011;30799;49.060;9.312;2022-07-01T02:56:10;0.80;;;0.80;;
45059;SDS011;30799;49.060;9.312;2022-07-01T02:58:37;0.50;;;0.50;;
45059;SDS011;30799;49.060;9.312;2022-07-01T03:01:04;2.00;;;0.60;;
45059;SDS011;30799;49.060;9.312;2022-07-01T03:03:30;1.13;;;0.40;;
45059;SDS011;30799;49.060;9.312;2022-07-01T03:05:57;1.55;;;0.80;;
45059;SDS011;30799;49.060;9.312;2022-07-01T03:08:24;2.78;;;0.77;;
45059;SDS011;30799;49.060;9.312;2022-07-01T03:10:50;1.50;;;0.68;;
45059;SDS011;30799;49.060;9.312;2022-07-01T03:13:17;1.17;;;0.50;;
45059;SDS011;30799;49.060;9.312;2022-07-01T03:15:45;0.85;;;0.40;;
45059;SDS011;30799;49.060;9.312;2022-07-01T03:18:12;1.33;;;0.63;;
45059;SDS011;30799;49.060;9.312;2022-07-01T03:20:39;1.40;;;0.50;;
45059;SDS011;30799;49.060;9.312;2022-07-01T03:23:05;1.13;;;0.60;;
45059;SDS011;30799;49.060;9.312;2022-07-01T03:25:32;2.33;;;0.47;;
45059;SDS011;30799;49.060;9.312;2022-07-01T03:27:59;1.55;;;0.50;;
45059;SDS011;30799;49.060;9.312;2022-07-01T03:30:29;1.45;;;0.70;;
45059;SDS011;30799;49.060;9.312;2022-07-01T03:32:56;0.88;;;0.50;;
45059;SDS011;30799;49.060;9.312;2022-07-01T03:35:22;0.90;;;0.40;;
45059;SDS011;30799;49.060;9.312;2022-07-01T03:38:02;0.60;;;0.32;;
45059;SDS011;30799;49.060;9.312;2022-07-01T03:40:30;0.43;;;0.40;;
45059;SDS011;30799;49.060;9.312;2022-07-01T03:42:57;1.38;;;0.60;;
45059;SDS011;30799;49.060;9.312;2022-07-01T03:45:24;3.65;;;0.60;;
45059;SDS011;30799;49.060;9.312;2022-07-01T03:47:50;1.95;;;0.80;;
45059;SDS011;30799;49.060;9.312;2022-07-01T03:50:18;0.50;;;0.50;;
45059;SDS011;30799;49.060;9.312;2022-07-01T03:52:47;0.65;;;0.45;;
45059;SDS011;30799;49.060;9.312;2022-07-01T03:55:15;2.13;;;0.70;;
45059;SDS011;30799;49.060;9.312;2022-07-01T03:57:42;1.08;;;0.47;;
45059;SDS011;30799;49.060;9.312;2022-07-01T04:00:10;1.70;;;0.60;;
45059;SDS011;30799;49.060;9.312;2022-07-01T04:02:42;1.52;;;0.68;;
45059;SDS011;30799;49.060;9.312;2022-07-01T04:05:08;2.25;;;0.60;;
45059;SDS011;30799;49.060;9.312;2022-07-01T04:07:35;1.50;;;0.52;;
45059;SDS011;30799;49.060;9.312;2022-07-01T04:10:02;1.15;;;0.55;;
45059;SDS011;30799;49.060;9.312;2022-07-01T04:12:29;2.30;;;0.70;;
45059;SDS011;30799;49.060;9.312;2022-07-01T04:14:56;1.00;;;0.80;;
45059;SDS011;30799;49.060;9.312;2022-07-01T04:17:22;1.85;;;0.68;;
45059;SDS011;30799;49.060;9.312;2022-07-01T04:19:49;2.13;;;1.30;;
45059;SDS011;30799;49.060;9.312;2022-07-01T04:22:16;1.08;;;0.68;;
45059;SDS011;30799;49.060;9.312;2022-07-01T04:25:02;1.95;;;0.85;;
45059;SDS011;30799;49.060;9.312;2022-07-01T04:27:30;1.08;;;0.70;;
45059;SDS011;30799;49.060;9.312;2022-07-01T04:29:57;1.42;;;0.70;;
45059;SDS011;30799;49.060;9.312;2022-07-01T04:32:24;2.08;;;0.70;;
45059;SDS011;30799;49.060;9.312;2022-07-01T04:34:51;1.42;;;0.93;;
45059;SDS011;30799;49.060;9.312;2022-07-01T04:37:18;2.45;;;1.00;;
45059;SDS011;30799;49.060;9.312;2022-07-01T04:39:45;1.77;;;1.20;;
45059;SDS011;30799;49.060;9.312;2022-07-01T04:42:12;0.82;;;0.80;;
45059;SDS011;30799;49.060;9.312;2022-07-01T04:44:41;1.80;;;0.73;;
45059;SDS011;30799;49.060;9.312;2022-07-01T04:47:09;0.75;;;0.75;;
45059;SDS011;30799;49.060;9.312;2022-07-01T04:49:36;1.95;;;1.20;;
45059;SDS011;30799;49.060;9.312;2022-07-01T04:52:03;3.00;;;0.90;;
45059;SDS011;30799;49.060;9.312;2022-07-01T04:54:30;1.23;;;1.10;;
45059;SDS011;30799;49.060;9.312;2022-07-01T04:56:56;2.10;;;1.25;;
45059;SDS011;30799;49.060;9.312;2022-07-01T04:59:23;2.95;;;0.98;;
45059;SDS011;30799;49.060;9.312;2022-07-01T05:01:50;2.63;;;1.00;;
45059;SDS011;30799;49.060;9.312;2022-07-01T05:04:17;1.15;;;1.08;;
45059;SDS011;30799;49.060;9.312;2022-07-01T05:06:45;2.72;;;1.33;;
45059;SDS011;30799;49.060;9.312;2022-07-01T05:09:12;1.88;;;1.20;;
45059;SDS011;30799;49.060;9.312;2022-07-01T05:11:39;1.52;;;1.20;;
45059;SDS011;30799;49.060;9.312;2022-07-01T05:14:06;1.70;;;1.30;;
45059;SDS011;30799;49.060;9.312;2022-07-01T05:16:33;1.33;;;1.20;;
45059;SDS011;30799;49.060;9.312;2022-07-01T05:19:01;2.05;;;1.23;;
45059;SDS011;30799;49.060;9.312;2022-07-01T05:21:47;1.33;;;1.08;;
45059;SDS011;30799;49.060;9.312;2022-07-01T05:24:24;1.20;;;1.10;;
45059;SDS011;30799;49.060;9.312;2022-07-01T05:26:53;1.48;;;1.20;;
45059;SDS011;30799;49.060;9.312;2022-07-01T05:29:20;2.63;;;0.93;;
45059;SDS011;30799;49.060;9.312;2022-07-01T05:31:46;2.40;;;1.15;;
45059;SDS011;30799;49.060;9.312;2022-07-01T05:34:13;3.60;;;1.27;;
45059;SDS011;30799;49.060;9.312;2022-07-01T05:36:40;2.63;;;1.20;;
45059;SDS011;30799;49.060;9.312;2022-07-01T05:39:07;2.42;;;1.27;;
45059;SDS011;30799;49.060;9.312;2022-07-01T05:41:34;3.30;;;0.80;;
45059;SDS011;30799;49.060;9.312;2022-07-01T05:44:01;5.00;;;1.00;;
45059;SDS011;30799;49.060;9.312;2022-07-01T05:46:28;1.10;;;0.60;;
45059;SDS011;30799;49.060;9.312;2022-07-01T05:48:54;2.53;;;0.73;;
45059;SDS011;30799;49.060;9.312;2022-07-01T05:51:21;0.93;;;0.70;;
45059;SDS011;30799;49.060;9.312;2022-07-01T05:53:48;0.98;;;0.70;;
45059;SDS011;30799;49.060;9.312;2022-07-01T05:56:15;0.93;;;0.60;;
45059;SDS011;30799;49.060;9.312;2022-07-01T05:58:41;0.75;;;0.60;;
45059;SDS011;30799;49.060;9.312;2022-07-01T06:01:08;2.13;;;0.77;;
45059;SDS011;30799;49.060;9.312;2022-07-01T06:03:35;0.73;;;0.70;;
45059;SDS011;30799;49.060;9.312;2022-07-01T06:06:02;0.70;;;0.70;;
45059;SDS011;30799;49.060;9.312;2022-07-01T06:08:29;0.57;;;0.55;;
45059;SDS011;30799;49.060;9.312;2022-07-01T06:10:56;0.88;;;0.50;;
45059;SDS011;30799;49.060;9.312;2022-07-01T06:13:23;2.15;;;0.70;;
45059;SDS011;30799;49.060;9.312;2022-07-01T06:15:49;1.60;;;0.65;;
45059;SDS011;30799;49.060;9.312;2022-07-01T06:18:16;1.58;;;0.50;;
45059;SDS011;30799;49.060;9.312;2022-07-01T06:20:43;2.38;;;0.80;;
45059;SDS011;30799;49.060;9.312;2022-07-01T06:23:10;0.88;;;0.40;;
45059;SDS011;30799;49.060;9.312;2022-07-01T06:25:37;0.68;;;0.60;;
45059;SDS011;30799;49.060;9.312;2022-07-01T06:28:03;1.80;;;0.70;;
45059;SDS011;30799;49.060;9.312;2022-07-01T06:30:30;1.10;;;0.60;;
45059;SDS011;30799;49.060;9.312;2022-07-01T06:32:57;0.65;;;0.50;;
45059;SDS011;30799;49.060;9.312;2022-07-01T06:35:24;1.23;;;0.88;;
45059;SDS011;30799;49.060;9.312;2022-07-01T06:37:51;1.70;;;0.63;;
45059;SDS011;30799;49.060;9.312;2022-07-01T06:40:23;1.30;;;0.70;;
45059;SDS011;30799;49.060;9.312;2022-07-01T06:42:50;1.30;;;0.60;;
45059;SDS011;30799;49.060;9.312;2022-07-01T06:45:19;0.57;;;0.57;;
45059;SDS011;30799;49.060;9.312;2022-07-01T06:47:45;0.65;;;0.43;;
45059;SDS011;30799;49.060;9.312;2022-07-01T06:50:12;0.82;;;0.57;;
45059;SDS011;30799;49.060;9.312;2022-07-01T06:52:39;0.80;;;0.50;;
45059;SDS011;30799;49.060;9.312;2022-07-01T06:55:05;1.00;;;0.60;;
45059;SDS011;30799;49.060;9.312;2022-07-01T06:57:32;0.80;;;0.43;;
45059;SDS011;30799;49.060;9.312;2022-07-01T06:59:59;2.30;;;0.50;;
45059;SDS011;30799;49.060;9.312;2022-07-01T07:02:26;1.05;;;0.75;;
45059;SDS011;30799;49.060;9.312;2022-07-01T07:04:55;0.60;;;0.60;;
45059;SDS011;30799;49.060;9.312;2022-07-01T07:07:27;0.85;;;0.68;;
45059;SDS011;30799;49.060;9.312;2022-07-01T07:09:54;0.45;;;0.45;;
45059;SDS011;30799;49.060;9.312;2022-07-01T07:12:22;0.75;;;0.40;;
45059;SDS011;30799;49.060;9.312;2022-07-01T07:14:49;2.70;;;0.57;;
45059;SDS011;30799;49.060;9.312;2022-07-01T07:17:16;0.63;;;0.55;;
45059;SDS011;30799;49.060;9.312;2022-07-01T07:19:43;0.73;;;0.45;;
45059;SDS011;30799;49.060;9.312;2022-07-01T07:22:09;1.75;;;0.55;;
45059;SDS011;30799;49.060;9.312;2022-07-01T07:24:36;1.42;;;0.40;;
45059;SDS011;30799;49.060;9.312;2022-07-01T07:27:04;0.65;;;0.40;;
45059;SDS011;30799;49.060;9.312;2022-07-01T07:29:31;1.05;;;0.50;;
45059;SDS011;30799;49.060;9.312;2022-07-01T07:31:57;0.57;;;0.57;;
45059;SDS011;30799;49.060;9.312;2022-07-01T07:34:24;0.70;;;0.47;;
45059;SDS011;30799;49.060;9.312;2022-07-01T07:36:51;0.60;;;0.50;;
45059;SDS011;30799;49.060;9.312;2022-07-01T07:39:17;1.15;;;0.45;;
45059;SDS011;30799;49.060;9.312;2022-07-01T07:41:44;1.17;;;0.50;;
45059;SDS011;30799;49.060;9.312;2022-07-01T07:44:11;0.60;;;0.40;;
45059;SDS011;30799;49.060;9.312;2022-07-01T07:46:38;0.50;;;0.50;;
45059;SDS011;30799;49.060;9.312;2022-07-01T07:49:04;0.55;;;0.38;;
45059;SDS011;30799;49.060;9.312;2022-07-01T07:51:31;0.40;;;0.40;;
45059;SDS011;30799;49.060;9.312;2022-07-01T07:53:58;0.63;;;0.60;;
45059;SDS011;30799;49.060;9.312;2022-07-01T07:56:26;1.70;;;0.50;;
45059;SDS011;30799;49.060;9.312;2022-07-01T07:58:53;0.43;;;0.43;;
45059;SDS011;30799;49.060;9.312;2022-07-01T08:01:19;0.40;;;0.40;;
45059;SDS011;30799;49.060;9.312;2022-07-01T08:03:46;0.52;;;0.47;;
45059;SDS011;30799;49.060;9.312;2022-07-01T08:06:13;0.80;;;0.45;;
45059;SDS011;30799;49.060;9.312;2022-07-01T08:08:40;0.82;;;0.43;;
45059;SDS011;30799;49.060;9.312;2022-07-01T08:11:07;0.40;;;0.40;;
45059;SDS011;30799;49.060;9.312;2022-07-01T08:13:33;0.65;;;0.60;;
45059;SDS011;30799;49.060;9.312;2022-07-01T08:16:00;0.50;;;0.50;;
45059;SDS011;30799;49.060;9.312;2022-07-01T08:18:27;0.50;;;0.50;;
45059;SDS011;30799;49.060;9.312;2022-07-01T08:20:54;0.60;;;0.50;;
45059;SDS011;30799;49.060;9.312;2022-07-01T08:23:21;0.60;;;0.47;;
45059;SDS011;30799;49.060;9.312;2022-07-01T08:25:48;0.65;;;0.40;;
45059;SDS011;30799;49.060;9.312;2022-07-01T08:28:16;0.95;;;0.60;;
45059;SDS011;30799;49.060;9.312;2022-07-01T08:30:43;0.77;;;0.50;;
45059;SDS011;30799;49.060;9.312;2022-07-01T08:33:10;0.40;;;0.30;;
45059;SDS011;30799;49.060;9.312;2022-07-01T08:35:37;0.60;;;0.40;;
45059;SDS011;30799;49.060;9.312;2022-07-01T08:38:04;0.40;;;0.40;;
45059;SDS011;30799;49.060;9.312;2022-07-01T08:40:31;0.93;;;0.50;;
45059;SDS011;30799;49.060;9.312;2022-07-01T08:42:59;0.50;;;0.50;;
45059;SDS011;30799;49.060;9.312;2022-07-01T08:45:29;0.70;;;0.47;;
45059;SDS011;30799;49.060;9.312;2022-07-01T08:47:59;0.50;;;0.50;;
45059;SDS011;30799;49.060;9.312;2022-07-01T08:50:28;0.68;;;0.50;;
45059;SDS011;30799;49.060;9.312;2022-07-01T08:53:06;0.50;;;0.50;;
45059;SDS011;30799;49.060;9.312;2022-07-01T08:55:34;0.60;;;0.60;;
45059;SDS011;30799;49.060;9.312;2022-07-01T08:58:21;0.63;;;0.52;;
45059;SDS011;30799;49.060;9.312;2022-07-01T09:00:48;0.50;;;0.40;;
45059;SDS011;30799;49.060;9.312;2022-07-01T09:03:16;2.25;;;0.55;;
45059;SDS011;30799;49.060;9.312;2022-07-01T09:05:48;0.32;;;0.32;;
45059;SDS011;30799;49.060;9.312;2022-07-01T09:08:17;0.50;;;0.50;;
45059;SDS011;30799;49.060;9.312;2022-07-01T09:10:44;0.43;;;0.43;;
45059;SDS011;30799;49.060;9.312;2022-07-01T09:13:13;0.47;;;0.45;;
45059;SDS011;30799;49.060;9.312;2022-07-01T09:15:40;0.50;;;0.50;;
45059;SDS011;30799;49.060;9.312;2022-07-01T09:18:12;0.52;;;0.50;;
45059;SDS011;30799;49.060;9.312;2022-07-01T09:20:41;0.50;;;0.50;;
45059;SDS011;30799;49.060;9.312;2022-07-01T09:23:13;0.70;;;0.50;;
45059;SDS011;30799;49.060;9.312;2022-07-01T09:25:42;0.52;;;0.40;;
45059;SDS011;30799;49.060;9.312;2022-07-01T09:28:20;0.55;;;0.50;;
45059;SDS011;30799;49.060;9.312;2022-07-01T09:30:52;0.50;;;0.50;;
45059;SDS011;30799;49.060;9.312;2022-07-01T09:33:21;0.40;;;0.40;;
45059;SDS011;30799;49.060;9.312;2022-07-01T09:35:50;0.40;;;0.40;;
45059;SDS011;30799;49.060;9.312;2022-07-01T09:38:19;0.40;;;0.40;;
45059;SDS011;30799;49.060;9.312;2022-07-01T09:40:59;0.77;;;0.40;;
45059;SDS011;30799;49.060;9.312;2022-07-01T09:43:28;0.90;;;0.65;;
45059;SDS011;30799;49.060;9.312;2022-07-01T09:48:48;0.43;;;0.43;;
45059;SDS011;30799;49.060;9.312;2022-07-01T09:51:14;0.30;;;0.30;;
45059;SDS011;30799;49.060;9.312;2022-07-01T09:53:42;0.30;;;0.30;;
45059;SDS011;30799;49.060;9.312;2022-07-01T09:56:09;1.15;;;0.50;;
45059;SDS011;30799;49.060;9.312;2022-07-01T09:58:36;0.52;;;0.52;;
45059;SDS011;30799;49.060;9.312;2022-07-01T10:01:05;0.68;;;0.60;;
45059;SDS011;30799;49.060;9.312;2022-07-01T10:03:34;0.60;;;0.60;;
45059;SDS011;30799;49.060;9.312;2022-07-01T10:14:30;0.70;;;0.32;;
45059;SDS011;30799;49.060;9.312;2022-07-01T10:16:58;0.57;;;0.57;;
45059;SDS011;30799;49.060;9.312;2022-07-01T10:19:26;0.60;;;0.50;;
45059;SDS011;30799;49.060;9.312;2022-07-01T10:21:54;0.57;;;0.45;;
45059;SDS011;30799;49.060;9.312;2022-07-01T10:24:24;0.40;;;0.40;;
45059;SDS011;30799;49.060;9.312;2022-07-01T10:26:52;1.90;;;0.60;;
45059;SDS011;30799;49.060;9.312;2022-07-01T10:29:29;0.50;;;0.50;;
45059;SDS011;30799;49.060;9.312;2022-07-01T10:35:11;0.45;;;0.40;;
45059;SDS011;30799;49.060;9.312;2022-07-01T10:37:57;0.47;;;0.47;;
45059;SDS011;30799;49.060;9.312;2022-07-01T10:40:40;0.90;;;0.47;;
45059;SDS011;30799;49.060;9.312;2022-07-01T10:43:11;0.55;;;0.38;;
45059;SDS011;30799;49.060;9.312;2022-07-01T10:45:54;0.40;;;0.40;;
45059;SDS011;30799;49.060;9.312;2022-07-01T10:48:22;0.70;;;0.70;;
45059;SDS011;30799;49.060;9.312;2022-07-01T10:50:50;0.45;;;0.45;;
45059;SDS011;30799;49.060;9.312;2022-07-01T10:53:18;0.50;;;0.40;;
45059;SDS011;30799;49.060;9.312;2022-07-01T10:55:49;0.30;;;0.30;;
45059;SDS011;30799;49.060;9.312;2022-07-01T10:58:38;0.57;;;0.50;;
45059;SDS011;30799;49.060;9.312;2022-07-01T11:03:35;0.40;;;0.40;;
45059;SDS011;30799;49.060;9.312;2022-07-01T11:06:05;0.52;;;0.52;;
45059;SDS011;30799;49.060;9.312;2022-07-01T11:08:33;0.50;;;0.50;;
45059;SDS011;30799;49.060;9.312;2022-07-01T11:11:01;0.40;;;0.40;;
45059;SDS011;30799;49.060;9.312;2022-07-01T11:13:30;1.27;;;0.50;;
45059;SDS011;30799;49.060;9.312;2022-07-01T11:15:58;0.57;;;0.40;;
45059;SDS011;30799;49.060;9.312;2022-07-01T11:18:26;0.55;;;0.35;;
45059;SDS011;30799;49.060;9.312;2022-07-01T11:21:06;0.52;;;0.38;;
45059;SDS011;30799;49.060;9.312;2022-07-01T11:23:34;0.40;;;0.40;;
45059;SDS011;30799;49.060;9.312;2022-07-01T11:26:05;0.50;;;0.50;;
45059;SDS011;30799;49.060;9.312;2022-07-01T11:28:37;0.38;;;0.38;;
45059;SDS011;30799;49.060;9.312;2022-07-01T11:31:05;0.43;;;0.38;;
45059;SDS011;30799;49.060;9.312;2022-07-01T11:33:32;0.52;;;0.52;;
45059;SDS011;30799;49.060;9.312;2022-07-01T11:35:59;0.40;;;0.40;;
45059;SDS011;30799;49.060;9.312;2022-07-01T11:38:44;0.40;;;0.40;;
45059;SDS011;30799;49.060;9.312;2022-07-01T11:41:46;2.17;;;0.52;;
45059;SDS011;30799;49.060;9.312;2022-07-01T11:44:13;0.40;;;0.40;;
45059;SDS011;30799;49.060;9.312;2022-07-01T11:47:22;0.30;;;0.30;;
45059;SDS011;30799;49.060;9.312;2022-07-01T11:49:50;0.50;;;0.50;;
45059;SDS011;30799;49.060;9.312;2022-07-01T11:52:17;0.40;;;0.40;;
45059;SDS011;30799;49.060;9.312;2022-07-01T11:54:46;0.38;;;0.38;;
45059;SDS011;30799;49.060;9.312;2022-07-01T11:57:16;0.30;;;0.30;;
45059;SDS011;30799;49.060;9.312;2022-07-01T11:59:45;0.40;;;0.40;;
45059;SDS011;30799;49.060;9.312;2022-07-01T12:02:15;0.30;;;0.30;;
45059;SDS011;30799;49.060;9.312;2022-07-01T12:04:45;0.50;;;0.50;;
45059;SDS011;30799;49.060;9.312;2022-07-01T12:07:13;0.50;;;0.50;;
45059;SDS011;30799;49.060;9.312;2022-07-01T12:09:41;0.40;;;0.40;;
45059;SDS011;30799;49.060;9.312;2022-07-01T12:12:14;0.40;;;0.40;;
45059;SDS011;30799;49.060;9.312;2022-07-01T12:14:49;0.30;;;0.30;;
45059;SDS011;30799;49.060;9.312;2022-07-01T12:17:19;0.38;;;0.38;;
45059;SDS011;30799;49.060;9.312;2022-07-01T12:19:48;0.40;;;0.40;;
45059;SDS011;30799;49.060;9.312;2022-07-01T12:22:22;0.50;;;0.50;;
45059;SDS011;30799;49.060;9.312;2022-07-01T12:24:51;0.60;;;0.40;;
45059;SDS011;30799;49.060;9.312;2022-07-01T12:27:21;0.43;;;0.43;;
45059;SDS011;30799;49.060;9.312;2022-07-01T12:29:49;0.50;;;0.50;;
45059;SDS011;30799;49.060;9.312;2022-07-01T12:32:19;0.25;;;0.20;;
45059;SDS011;30799;49.060;9.312;2022-07-01T12:34:50;0.40;;;0.40;;
45059;SDS011;30799;49.060;9.312;2022-07-01T12:37:26;0.22;;;0.22;;
45059;SDS011;30799;49.060;9.312;2022-07-01T12:40:00;0.45;;;0.40;;
45059;SDS011;30799;49.060;9.312;2022-07-01T12:42:40;0.40;;;0.40;;
45059;SDS011;30799;49.060;9.312;2022-07-01T12:45:13;0.38;;;0.38;;
45059;SDS011;30799;49.060;9.312;2022-07-01T12:47:48;0.30;;;0.30;;
45059;SDS011;30799;49.060;9.312;2022-07-01T12:50:20;0.38;;;0.38;;
45059;SDS011;30799;49.060;9.312;2022-07-01T12:53:06;0.37;;;0.37;;
45059;SDS011;30799;49.060;9.312;2022-07-01T12:55:35;0.38;;;0.35;;
45059;SDS011;30799;49.060;9.312;2022-07-01T12:58:03;0.30;;;0.30;;
45059;SDS011;30799;49.060;9.312;2022-07-01T13:00:31;0.70;;;0.40;;
45059;SDS011;30799;49.060;9.312;2022-07-01T13:02:59;0.50;;;0.30;;
45059;SDS011;30799;49.060;9.312;2022-07-01T13:05:28;0.30;;;0.30;;
45059;SDS011;30799;49.060;9.312;2022-07-01T13:07:57;0.40;;;0.40;;
45059;SDS011;30799;49.060;9.312;2022-07-01T13:10:24;0.40;;;0.40;;
45059;SDS011;30799;49.060;9.312;2022-07-01T13:12:51;0.40;;;0.40;;
45059;SDS011;30799;49.060;9.312;2022-07-01T13:15:18;0.40;;;0.35;;
45059;SDS011;30799;49.060;9.312;2022-07-01T13:17:45;0.50;;;0.50;;
45059;SDS011;30799;49.060;9.312;2022-07-01T13:20:13;0.40;;;0.35;;
45059;SDS011;30799;49.060;9.312;2022-07-01T13:22:40;0.32;;;0.32;;
45059;SDS011;30799;49.060;9.312;2022-07-01T13:25:08;0.43;;;0.43;;
45059;SDS011;30799;49.060;9.312;2022-07-01T13:27:35;0.28;;;0.28;;
45059;SDS011;30799;49.060;9.312;2022-07-01T13:30:03;0.43;;;0.30;;
45059;SDS011;30799;49.060;9.312;2022-07-01T13:32:31;0.57;;;0.57;;
45059;SDS011;30799;49.060;9.312;2022-07-01T13:34:57;0.30;;;0.30;;
45059;SDS011;30799;49.060;9.312;2022-07-01T13:37:24;0.30;;;0.30;;
45059;SDS011;30799;49.060;9.312;2022-07-01T13:39:51;0.43;;;0.43;;
45059;SDS011;30799;49.060;9.312;2022-07-01T13:42:17;0.32;;;0.32;;
45059;SDS011;30799;49.060;9.312;2022-07-01T13:44:44;0.40;;;0.40;;
45059;SDS011;30799;49.060;9.312;2022-07-01T13:47:11;0.30;;;0.30;;
45059;SDS011;30799;49.060;9.312;2022-07-01T13:49:41;0.35;;;0.30;;
45059;SDS011;30799;49.060;9.312;2022-07-01T13:52:09;0.30;;;0.30;;
45059;SDS011;30799;49.060;9.312;2022-07-01T13:54:36;0.40;;;0.40;;
45059;SDS011;30799;49.060;9.312;2022-07-01T13:57:03;0.45;;;0.38;;
45059;SDS011;30799;49.060;9.312;2022-07-01T13:59:30;0.43;;;0.30;;
45059;SDS011;30799;49.060;9.312;2022-07-01T14:02:00;0.30;;;0.30;;
45059;SDS011;30799;49.060;9.312;2022-07-01T14:04:27;0.30;;;0.30;;
45059;SDS011;30799;49.060;9.312;2022-07-01T14:06:53;0.40;;;0.40;;
45059;SDS011;30799;49.060;9.312;2022-07-01T14:09:20;1.58;;;0.50;;
45059;SDS011;30799;49.060;9.312;2022-07-01T14:11:47;0.40;;;0.40;;
45059;SDS011;30799;49.060;9.312;2022-07-01T14:14:14;0.50;;;0.50;;
45059;SDS011;30799;49.060;9.312;2022-07-01T14:16:40;0.52;;;0.40;;
45059;SDS011;30799;49.060;9.312;2022-07-01T14:19:07;0.40;;;0.40;;
45059;SDS011;30799;49.060;9.312;2022-07-01T14:21:34;0.70;;;0.30;;
45059;SDS011;30799;49.060;9.312;2022-07-01T14:24:02;0.40;;;0.40;;
45059;SDS011;30799;49.060;9.312;2022-07-01T14:26:30;0.50;;;0.50;;
45059;SDS011;30799;49.060;9.312;2022-07-01T14:28:57;0.40;;;0.40;;
45059;SDS011;30799;49.060;9.312;2022-07-01T14:31:23;0.40;;;0.40;;
45059;SDS011;30799;49.060;9.312;2022-07-01T14:33:50;0.35;;;0.35;;
45059;SDS011;30799;49.060;9.312;2022-07-01T14:36:17;0.30;;;0.30;;
45059;SDS011;30799;49.060;9.312;2022-07-01T14:38:43;0.30;;;0.30;;
45059;SDS011;30799;49.060;9.312;2022-07-01T14:41:10;0.40;;;0.40;;
45059;SDS011;30799;49.060;9.312;2022-07-01T14:43:37;0.40;;;0.40;;
45059;SDS011;30799;49.060;9.312;2022-07-01T14:46:04;0.40;;;0.40;;
45059;SDS011;30799;49.060;9.312;2022-07-01T14:48:35;0.50;;;0.50;;
45059;SDS011;30799;49.060;9.312;2022-07-01T14:51:04;0.65;;;0.40;;
45059;SDS011;30799;49.060;9.312;2022-07-01T14:53:32;0.25;;;0.25;;
45059;SDS011;30799;49.060;9.312;2022-07-01T14:55:59;0.25;;;0.25;;
45059;SDS011;30799;49.060;9.312;2022-07-01T14:58:26;0.40;;;0.38;;
45059;SDS011;30799;49.060;9.312;2022-07-01T15:00:53;0.30;;;0.30;;
45059;SDS011;30799;49.060;9.312;2022-07-01T15:03:21;0.40;;;0.40;;
45059;SDS011;30799;49.060;9.312;2022-07-01T15:05:48;0.40;;;0.40;;
45059;SDS011;30799;49.060;9.312;2022-07-01T15:08:19;0.40;;;0.40;;
45059;SDS011;30799;49.060;9.312;2022-07-01T15:10:47;0.30;;;0.30;;
45059;SDS011;30799;49.060;9.312;2022-07-01T15:13:14;0.82;;;0.55;;